Terminal Aerodrome Forecast
Issued by NWS

Home | Current Version | Previous Version | Text Only | Print | Product List | Glossary On
Versions: 1 2 3 4 5 6 7 8 9 10 11 12 13 14 15 16 17 18
633
FTUS42 KTAE 221738
TAFECP
TAF
KECP 221738Z 2218/2318 34008KT P6SM FEW020 SCT250
     FM222000 27009KT P6SM SCT040
     FM230600 08006KT P6SM BKN050
     FM231200 08010KT P6SM BKN020=

USA.gov is the U.S. government's official web portal to all federal, state and local government web resources and services.